createdAt,value
2018-11-20T00:00:48.201Z,76.44
2018-11-20T00:06:00.871Z,77.33
2018-11-20T00:11:24.339Z,77.67
2018-11-20T00:16:34.196Z,76.92
2018-11-20T00:21:57.451Z,77.15
2018-11-20T00:27:39.698Z,76.35
2018-11-20T00:33:02.940Z,75.92
2018-11-20T00:38:26.210Z,76.06
2018-11-20T00:43:49.451Z,75.93
2018-11-20T00:49:12.653Z,76.50
2018-11-20T00:54:35.922Z,75.74
2018-11-20T01:00:18.184Z,75.46
2018-11-20T01:05:31.600Z,75.90
2018-11-20T01:10:54.735Z,76.59
2018-11-20T01:16:17.998Z,76.20
2018-11-20T01:21:41.217Z,75.53
2018-11-20T01:27:04.441Z,75.87
2018-11-20T01:32:27.671Z,75.82
2018-11-20T01:37:50.915Z,75.48
2018-11-20T01:43:14.156Z,75.63
2018-11-20T01:48:37.364Z,75.56
2018-11-20T01:54:00.604Z,76.64
2018-11-20T01:59:23.822Z,75.86
2018-11-20T02:04:47.087Z,75.55
2018-11-20T02:10:10.344Z,76.26
2018-11-20T02:15:33.574Z,76.23
2018-11-20T02:20:57.257Z,76.08
2018-11-20T02:26:20.461Z,75.92
2018-11-20T02:31:43.674Z,75.81
2018-11-20T02:37:06.947Z,76.17
2018-11-20T02:42:30.209Z,76.00
2018-11-20T02:47:53.544Z,76.24
2018-11-20T02:53:16.783Z,75.87
2018-11-20T02:58:40.049Z,76.69
2018-11-20T03:04:03.276Z,75.79
2018-11-20T03:09:27.515Z,75.81
2018-11-20T03:14:50.757Z,75.70
2018-11-20T03:20:13.984Z,75.84
2018-11-20T03:26:00.048Z,75.46
2018-11-20T03:31:23.590Z,75.80
2018-11-20T03:36:46.817Z,75.80
2018-11-20T03:42:10.132Z,75.53
2018-11-20T03:47:33.288Z,75.62
2018-11-20T03:52:56.531Z,75.59
2018-11-20T03:58:19.751Z,74.83
2018-11-20T04:03:42.996Z,75.18
2018-11-20T04:09:06.229Z,75.35
2018-11-20T04:14:29.479Z,74.90
2018-11-20T04:19:52.694Z,74.77
2018-11-20T04:25:15.963Z,74.50
2018-11-20T04:31:17.144Z,74.26
2018-11-20T04:36:40.386Z,74.68
2018-11-20T04:42:03.669Z,74.67
2018-11-20T04:47:19.174Z,74.45
2018-11-20T04:52:42.370Z,74.91
2018-11-20T04:58:05.612Z,74.73
2018-11-20T05:03:29.095Z,75.32
2018-11-20T05:08:52.408Z,74.83
2018-11-20T05:14:34.617Z,75.11
2018-11-20T05:20:09.246Z,75.15
2018-11-20T05:25:32.497Z,75.71
2018-11-20T05:30:55.741Z,75.31
2018-11-20T05:36:12.436Z,75.50
2018-11-20T05:41:54.631Z,75.63
2018-11-20T05:47:17.848Z,75.42
2018-11-20T05:52:41.069Z,75.03
2018-11-20T05:58:23.311Z,74.91
2018-11-20T06:03:46.584Z,75.34
2018-11-20T06:09:09.818Z,75.22
2018-11-20T06:14:33.046Z,75.32
2018-11-20T06:19:56.307Z,75.21
2018-11-20T06:25:07.912Z,75.57
2018-11-20T06:30:31.091Z,75.48
2018-11-20T06:35:54.334Z,75.66
2018-11-20T06:41:17.677Z,76.17
2018-11-20T06:46:40.813Z,75.41
2018-11-20T06:51:55.924Z,75.31
2018-11-20T06:57:25.536Z,74.98
2018-11-20T07:02:48.711Z,74.67
2018-11-20T07:08:01.492Z,74.50
2018-11-20T07:13:42.752Z,74.69
2018-11-20T07:19:06.000Z,74.95
2018-11-20T07:24:48.315Z,74.97
2018-11-20T07:30:11.654Z,75.11
2018-11-20T07:35:34.829Z,75.14
2018-11-20T07:41:17.065Z,75.30
2018-11-20T07:46:40.294Z,75.46
2018-11-20T07:52:03.567Z,75.75
2018-11-20T07:57:45.878Z,76.00
2018-11-20T08:03:09.130Z,75.80
2018-11-20T08:08:20.654Z,75.85
2018-11-20T08:13:43.926Z,75.81
2018-11-20T08:19:00.541Z,75.84
2018-11-20T08:24:23.923Z,75.57
2018-11-20T08:29:47.142Z,75.39
2018-11-20T08:35:10.463Z,75.29
2018-11-20T08:40:33.676Z,76.03
2018-11-20T08:45:56.886Z,75.13
2018-11-20T08:51:20.120Z,75.68
2018-11-20T08:56:43.337Z,75.21
2018-11-20T09:02:06.621Z,75.39
2018-11-20T09:07:24.957Z,75.15
2018-11-20T09:12:38.183Z,75.32
2018-11-20T09:18:01.508Z,74.88
2018-11-20T09:23:43.609Z,75.05
2018-11-20T09:29:06.864Z,74.91
2018-11-20T09:34:30.125Z,75.04
2018-11-20T09:39:59.432Z,74.63
2018-11-20T09:45:43.852Z,74.69
2018-11-20T09:51:07.089Z,74.45
2018-11-20T09:56:30.323Z,74.41
2018-11-20T10:01:53.775Z,74.36
2018-11-20T10:07:16.972Z,74.50
2018-11-20T10:12:40.187Z,74.37
2018-11-20T10:18:03.428Z,74.78
2018-11-20T10:23:26.681Z,74.78
2018-11-20T10:28:49.891Z,73.99
2018-11-20T10:34:13.246Z,73.89
2018-11-20T10:39:36.375Z,74.43
2018-11-20T10:44:59.656Z,74.44
2018-11-20T10:50:22.947Z,73.76
2018-11-20T10:55:33.374Z,73.70
2018-11-20T11:00:56.610Z,73.64
2018-11-20T11:06:19.919Z,73.56
2018-11-20T11:17:01.617Z,73.42
2018-11-20T11:22:24.932Z,73.38
2018-11-20T11:27:48.325Z,74.33
2018-11-20T11:33:30.610Z,73.33
2018-11-20T11:38:53.890Z,73.31
2018-11-20T11:44:17.182Z,72.94
2018-11-20T11:49:40.446Z,72.66
2018-11-20T11:55:03.722Z,72.42
2018-11-20T12:00:23.276Z,72.52
2018-11-20T12:05:46.518Z,72.00
2018-11-20T12:11:29.720Z,71.99
2018-11-20T12:16:53.012Z,72.09
2018-11-20T12:22:16.241Z,71.92
2018-11-20T12:27:34.524Z,72.54
2018-11-20T12:32:57.790Z,72.40
2018-11-20T12:38:21.032Z,73.41
2018-11-20T12:43:54.817Z,72.74
2018-11-20T12:49:17.076Z,73.03
2018-11-20T12:54:39.829Z,73.16
2018-11-20T13:00:03.090Z,73.62
2018-11-20T13:05:26.520Z,73.45
2018-11-20T13:10:49.755Z,74.12
2018-11-20T13:16:12.963Z,74.42
2018-11-20T13:21:36.188Z,76.21
2018-11-20T13:26:59.464Z,75.43
2018-11-20T13:32:22.808Z,75.88
2018-11-20T13:37:35.611Z,76.58
2018-11-20T13:42:59.914Z,76.23
2018-11-20T13:48:15.181Z,77.81
2018-11-20T13:53:38.365Z,77.53
2018-11-20T13:59:01.591Z,77.38
2018-11-20T14:04:24.820Z,77.51
2018-11-20T14:09:48.147Z,77.01
2018-11-20T14:15:11.373Z,77.04
2018-11-20T14:20:34.627Z,76.50
2018-11-20T14:25:57.889Z,76.81
2018-11-20T14:31:21.117Z,76.32
2018-11-20T14:36:36.571Z,75.81
2018-11-20T14:41:59.796Z,74.86
2018-11-20T14:47:23.056Z,75.27
2018-11-20T14:52:46.359Z,75.76
2018-11-20T14:58:09.576Z,75.56
2018-11-20T15:03:51.860Z,75.94
2018-11-20T15:09:15.124Z,76.59
2018-11-20T15:14:38.355Z,77.05
2018-11-20T15:20:20.560Z,76.40
2018-11-20T15:25:43.789Z,77.01
2018-11-20T15:31:07.071Z,76.66
2018-11-20T15:36:49.297Z,77.14
2018-11-20T15:42:12.564Z,76.86
2018-11-20T15:47:35.862Z,77.65
2018-11-20T15:52:56.459Z,77.53
2018-11-20T15:58:19.664Z,76.66
2018-11-20T16:03:42.947Z,76.70
2018-11-20T16:09:25.135Z,76.95
2018-11-20T16:14:40.859Z,77.12
2018-11-20T16:20:04.171Z,77.05
2018-11-20T16:25:46.306Z,77.87
2018-11-20T16:31:01.578Z,77.43
2018-11-20T16:36:37.778Z,76.88
2018-11-20T16:42:00.965Z,76.79
2018-11-20T16:47:24.205Z,77.04
2018-11-20T16:52:47.462Z,77.40
2018-11-20T16:58:10.737Z,77.25
2018-11-20T17:03:34.017Z,76.72
2018-11-20T17:08:57.303Z,76.72
2018-11-20T17:14:20.524Z,76.98
2018-11-20T17:19:43.794Z,77.56
2018-11-20T17:25:07.065Z,76.78
2018-11-20T17:30:31.314Z,77.25
2018-11-20T17:35:54.617Z,77.37
2018-11-20T17:41:17.949Z,77.52
2018-11-20T17:46:33.100Z,78.01
2018-11-20T17:51:56.351Z,77.31
2018-11-20T17:57:19.629Z,77.48
2018-11-20T18:02:42.885Z,77.00
2018-11-20T18:08:06.113Z,77.07
2018-11-20T18:13:48.379Z,77.50
2018-11-20T18:19:11.660Z,77.65
2018-11-20T18:24:34.929Z,77.87
2018-11-20T18:29:58.157Z,77.74
2018-11-20T18:35:21.495Z,78.43
2018-11-20T18:40:44.797Z,78.51
2018-11-20T18:46:08.419Z,78.23
2018-11-20T18:57:06.196Z,77.34
2018-11-20T19:02:23.844Z,77.37
2018-11-20T19:07:47.105Z,77.19
2018-11-20T19:13:10.367Z,77.71
2018-11-20T19:18:33.589Z,77.30
2018-11-20T19:23:56.868Z,77.28
2018-11-20T19:29:20.076Z,76.76
2018-11-20T19:35:02.257Z,77.47
2018-11-20T19:40:27.168Z,77.02
2018-11-20T19:45:50.544Z,77.26
2018-11-20T19:51:13.907Z,79.02
2018-11-20T19:56:37.274Z,77.24
2018-11-20T20:02:00.678Z,76.79
2018-11-20T20:07:24.117Z,76.40
2018-11-20T20:12:47.508Z,76.92
2018-11-20T20:18:10.903Z,76.90
2018-11-20T20:23:41.129Z,77.07
2018-11-20T20:29:04.416Z,76.73
2018-11-20T20:34:17.349Z,76.04
2018-11-20T20:39:40.595Z,75.52
2018-11-20T20:45:03.874Z,75.42
2018-11-20T20:50:27.284Z,75.75
2018-11-20T20:55:50.617Z,75.95
2018-11-20T21:01:14.070Z,76.11
2018-11-20T21:06:37.346Z,76.91
2018-11-20T21:12:19.634Z,76.86
2018-11-20T21:18:01.892Z,77.90
2018-11-20T21:23:25.642Z,78.86
2018-11-20T21:28:48.867Z,78.64
2018-11-20T21:34:12.171Z,78.44
2018-11-20T21:39:35.451Z,79.06
2018-11-20T21:44:58.714Z,80.24
2018-11-20T21:50:21.938Z,80.00
2018-11-20T21:55:36.569Z,79.70
2018-11-20T22:01:20.321Z,79.36
2018-11-20T22:06:43.744Z,80.88
2018-11-20T22:12:26.169Z,79.06
2018-11-20T22:17:49.401Z,80.16
2018-11-20T22:23:12.624Z,79.66
2018-11-20T22:28:35.942Z,79.05
2018-11-20T22:33:59.257Z,79.28
2018-11-20T22:39:41.627Z,80.57
2018-11-20T22:45:04.952Z,79.01
2018-11-20T22:50:28.193Z,78.70
2018-11-20T22:55:51.435Z,79.84
2018-11-20T23:01:14.655Z,79.74
2018-11-20T23:06:36.507Z,80.26
2018-11-20T23:11:40.930Z,79.47
2018-11-20T23:16:45.531Z,79.25
2018-11-20T23:21:50.108Z,79.44
2018-11-20T23:27:16.550Z,80.31
2018-11-20T23:32:19.044Z,79.92
2018-11-20T23:37:42.660Z,80.25
2018-11-20T23:42:47.307Z,80.81
2018-11-20T23:47:52.068Z,80.54
2018-11-20T23:52:57.085Z,79.70
2018-11-20T23:58:01.559Z,80.49
